sensor_id;sensor_type;location;lat;lon;timestamp;P1;durP1;ratioP1;P2;durP2;ratioP2
6679;SDS011;3376;42.664;23.346;2022-12-24T00:00:55;53.72;;;34.50;;
6679;SDS011;3376;42.664;23.346;2022-12-24T00:03:23;51.00;;;31.90;;
6679;SDS011;3376;42.664;23.346;2022-12-24T00:05:50;51.20;;;31.67;;
6679;SDS011;3376;42.664;23.346;2022-12-24T00:08:17;53.90;;;30.65;;
6679;SDS011;3376;42.664;23.346;2022-12-24T00:10:43;51.70;;;31.85;;
6679;SDS011;3376;42.664;23.346;2022-12-24T00:13:13;47.55;;;30.00;;
6679;SDS011;3376;42.664;23.346;2022-12-24T00:15:40;43.95;;;27.95;;
6679;SDS011;3376;42.664;23.346;2022-12-24T00:18:08;47.30;;;29.38;;
6679;SDS011;3376;42.664;23.346;2022-12-24T00:20:35;52.30;;;32.17;;
6679;SDS011;3376;42.664;23.346;2022-12-24T00:23:02;47.27;;;29.93;;
6679;SDS011;3376;42.664;23.346;2022-12-24T00:25:29;44.80;;;29.60;;
6679;SDS011;3376;42.664;23.346;2022-12-24T00:27:55;44.57;;;27.17;;
6679;SDS011;3376;42.664;23.346;2022-12-24T00:30:22;44.07;;;31.40;;
6679;SDS011;3376;42.664;23.346;2022-12-24T00:32:49;42.60;;;30.60;;
6679;SDS011;3376;42.664;23.346;2022-12-24T00:35:17;43.17;;;26.93;;
6679;SDS011;3376;42.664;23.346;2022-12-24T00:37:45;43.97;;;27.77;;
6679;SDS011;3376;42.664;23.346;2022-12-24T00:40:12;44.87;;;30.60;;
6679;SDS011;3376;42.664;23.346;2022-12-24T00:42:39;40.80;;;26.70;;
6679;SDS011;3376;42.664;23.346;2022-12-24T00:45:06;41.30;;;27.10;;
6679;SDS011;3376;42.664;23.346;2022-12-24T00:47:34;39.10;;;25.77;;
6679;SDS011;3376;42.664;23.346;2022-12-24T00:50:00;35.47;;;26.13;;
6679;SDS011;3376;42.664;23.346;2022-12-24T00:52:29;36.63;;;25.30;;
6679;SDS011;3376;42.664;23.346;2022-12-24T00:54:56;40.00;;;29.70;;
6679;SDS011;3376;42.664;23.346;2022-12-24T00:57:23;37.70;;;26.03;;
6679;SDS011;3376;42.664;23.346;2022-12-24T00:59:49;40.75;;;26.45;;
6679;SDS011;3376;42.664;23.346;2022-12-24T01:02:16;48.90;;;30.55;;
6679;SDS011;3376;42.664;23.346;2022-12-24T01:04:43;56.63;;;39.22;;
6679;SDS011;3376;42.664;23.346;2022-12-24T01:07:29;41.17;;;26.52;;
6679;SDS011;3376;42.664;23.346;2022-12-24T01:09:55;35.38;;;24.33;;
6679;SDS011;3376;42.664;23.346;2022-12-24T01:12:22;39.17;;;28.73;;
6679;SDS011;3376;42.664;23.346;2022-12-24T01:14:49;43.55;;;28.40;;
6679;SDS011;3376;42.664;23.346;2022-12-24T01:17:16;37.20;;;24.42;;
6679;SDS011;3376;42.664;23.346;2022-12-24T01:19:43;35.05;;;24.73;;
6679;SDS011;3376;42.664;23.346;2022-12-24T01:22:09;33.78;;;23.80;;
6679;SDS011;3376;42.664;23.346;2022-12-24T01:24:38;43.72;;;28.63;;
6679;SDS011;3376;42.664;23.346;2022-12-24T01:27:05;43.28;;;27.83;;
6679;SDS011;3376;42.664;23.346;2022-12-24T01:29:32;35.88;;;28.15;;
6679;SDS011;3376;42.664;23.346;2022-12-24T01:31:59;39.05;;;28.52;;
6679;SDS011;3376;42.664;23.346;2022-12-24T01:34:26;38.45;;;24.08;;
6679;SDS011;3376;42.664;23.346;2022-12-24T01:36:52;35.80;;;27.20;;
6679;SDS011;3376;42.664;23.346;2022-12-24T01:39:19;28.45;;;24.98;;
6679;SDS011;3376;42.664;23.346;2022-12-24T01:41:47;32.20;;;24.77;;
6679;SDS011;3376;42.664;23.346;2022-12-24T01:44:33;34.38;;;24.30;;
6679;SDS011;3376;42.664;23.346;2022-12-24T01:47:02;33.83;;;22.20;;
6679;SDS011;3376;42.664;23.346;2022-12-24T01:49:33;32.83;;;23.50;;
6679;SDS011;3376;42.664;23.346;2022-12-24T01:52:03;37.38;;;23.70;;
6679;SDS011;3376;42.664;23.346;2022-12-24T01:54:33;34.53;;;24.17;;
6679;SDS011;3376;42.664;23.346;2022-12-24T01:57:06;38.33;;;24.80;;
6679;SDS011;3376;42.664;23.346;2022-12-24T01:59:36;34.53;;;24.67;;
6679;SDS011;3376;42.664;23.346;2022-12-24T02:02:03;38.00;;;25.27;;
6679;SDS011;3376;42.664;23.346;2022-12-24T02:04:32;31.33;;;23.27;;
6679;SDS011;3376;42.664;23.346;2022-12-24T02:07:02;46.85;;;28.60;;
6679;SDS011;3376;42.664;23.346;2022-12-24T02:09:29;42.90;;;30.88;;
6679;SDS011;3376;42.664;23.346;2022-12-24T02:11:58;44.25;;;28.30;;
6679;SDS011;3376;42.664;23.346;2022-12-24T02:14:27;36.33;;;23.80;;
6679;SDS011;3376;42.664;23.346;2022-12-24T02:16:58;43.13;;;23.00;;
6679;SDS011;3376;42.664;23.346;2022-12-24T02:19:34;31.85;;;25.70;;
6679;SDS011;3376;42.664;23.346;2022-12-24T02:22:26;33.93;;;21.10;;
6679;SDS011;3376;42.664;23.346;2022-12-24T02:25:09;32.40;;;20.65;;
6679;SDS011;3376;42.664;23.346;2022-12-24T02:27:54;29.73;;;21.55;;
6679;SDS011;3376;42.664;23.346;2022-12-24T02:30:24;34.13;;;21.15;;
6679;SDS011;3376;42.664;23.346;2022-12-24T02:33:03;32.85;;;22.10;;
6679;SDS011;3376;42.664;23.346;2022-12-24T02:35:41;33.00;;;24.73;;
6679;SDS011;3376;42.664;23.346;2022-12-24T02:38:15;37.83;;;23.63;;
6679;SDS011;3376;42.664;23.346;2022-12-24T02:40:49;33.08;;;22.90;;
6679;SDS011;3376;42.664;23.346;2022-12-24T02:43:19;39.17;;;25.50;;
6679;SDS011;3376;42.664;23.346;2022-12-24T02:45:52;37.05;;;26.17;;
6679;SDS011;3376;42.664;23.346;2022-12-24T02:48:23;38.90;;;24.55;;
6679;SDS011;3376;42.664;23.346;2022-12-24T02:50:56;35.75;;;26.10;;
6679;SDS011;3376;42.664;23.346;2022-12-24T02:53:26;43.75;;;27.52;;
6679;SDS011;3376;42.664;23.346;2022-12-24T02:55:57;44.10;;;25.27;;
6679;SDS011;3376;42.664;23.346;2022-12-24T02:58:36;45.75;;;27.63;;
6679;SDS011;3376;42.664;23.346;2022-12-24T03:01:13;40.30;;;25.23;;
6679;SDS011;3376;42.664;23.346;2022-12-24T03:03:48;30.20;;;21.73;;
6679;SDS011;3376;42.664;23.346;2022-12-24T03:06:29;37.55;;;25.27;;
6679;SDS011;3376;42.664;23.346;2022-12-24T03:09:04;41.58;;;25.42;;
6679;SDS011;3376;42.664;23.346;2022-12-24T03:11:40;38.00;;;25.08;;
6679;SDS011;3376;42.664;23.346;2022-12-24T03:14:13;32.05;;;21.27;;
6679;SDS011;3376;42.664;23.346;2022-12-24T03:16:42;35.88;;;23.60;;
6679;SDS011;3376;42.664;23.346;2022-12-24T03:19:10;29.70;;;21.73;;
6679;SDS011;3376;42.664;23.346;2022-12-24T03:21:38;30.50;;;21.10;;
6679;SDS011;3376;42.664;23.346;2022-12-24T03:24:06;33.13;;;21.92;;
6679;SDS011;3376;42.664;23.346;2022-12-24T03:26:34;32.25;;;21.83;;
6679;SDS011;3376;42.664;23.346;2022-12-24T03:29:03;33.08;;;22.30;;
6679;SDS011;3376;42.664;23.346;2022-12-24T03:31:38;32.03;;;25.83;;
6679;SDS011;3376;42.664;23.346;2022-12-24T03:34:08;34.40;;;26.17;;
6679;SDS011;3376;42.664;23.346;2022-12-24T03:36:34;34.17;;;26.10;;
6679;SDS011;3376;42.664;23.346;2022-12-24T03:39:02;35.42;;;26.80;;
6679;SDS011;3376;42.664;23.346;2022-12-24T03:41:29;35.20;;;23.35;;
6679;SDS011;3376;42.664;23.346;2022-12-24T03:43:56;36.22;;;24.30;;
6679;SDS011;3376;42.664;23.346;2022-12-24T03:46:22;34.00;;;25.67;;
6679;SDS011;3376;42.664;23.346;2022-12-24T03:48:49;36.15;;;25.13;;
6679;SDS011;3376;42.664;23.346;2022-12-24T03:51:18;33.03;;;24.48;;
6679;SDS011;3376;42.664;23.346;2022-12-24T03:53:46;26.73;;;19.75;;
6679;SDS011;3376;42.664;23.346;2022-12-24T03:56:13;36.72;;;22.98;;
6679;SDS011;3376;42.664;23.346;2022-12-24T03:58:40;26.88;;;20.77;;
6679;SDS011;3376;42.664;23.346;2022-12-24T04:01:07;30.75;;;21.00;;
6679;SDS011;3376;42.664;23.346;2022-12-24T04:03:34;34.22;;;24.85;;
6679;SDS011;3376;42.664;23.346;2022-12-24T04:06:01;29.08;;;20.45;;
6679;SDS011;3376;42.664;23.346;2022-12-24T04:08:29;34.00;;;20.48;;
6679;SDS011;3376;42.664;23.346;2022-12-24T04:10:56;30.38;;;19.83;;
6679;SDS011;3376;42.664;23.346;2022-12-24T04:13:23;29.30;;;23.23;;
6679;SDS011;3376;42.664;23.346;2022-12-24T04:15:55;28.98;;;23.33;;
6679;SDS011;3376;42.664;23.346;2022-12-24T04:18:23;30.58;;;23.95;;
6679;SDS011;3376;42.664;23.346;2022-12-24T04:20:49;30.92;;;24.02;;
6679;SDS011;3376;42.664;23.346;2022-12-24T04:23:16;27.02;;;23.05;;
6679;SDS011;3376;42.664;23.346;2022-12-24T04:25:44;31.42;;;25.92;;
6679;SDS011;3376;42.664;23.346;2022-12-24T04:28:12;37.75;;;26.92;;
6679;SDS011;3376;42.664;23.346;2022-12-24T04:30:40;31.30;;;24.30;;
6679;SDS011;3376;42.664;23.346;2022-12-24T04:33:07;24.75;;;21.25;;
6679;SDS011;3376;42.664;23.346;2022-12-24T04:35:37;25.38;;;21.75;;
6679;SDS011;3376;42.664;23.346;2022-12-24T04:38:05;27.67;;;20.75;;
6679;SDS011;3376;42.664;23.346;2022-12-24T04:40:32;28.15;;;21.73;;
6679;SDS011;3376;42.664;23.346;2022-12-24T04:43:00;26.38;;;21.35;;
6679;SDS011;3376;42.664;23.346;2022-12-24T04:45:26;29.95;;;21.48;;
6679;SDS011;3376;42.664;23.346;2022-12-24T04:47:53;29.67;;;21.63;;
6679;SDS011;3376;42.664;23.346;2022-12-24T04:50:20;28.10;;;21.50;;
6679;SDS011;3376;42.664;23.346;2022-12-24T04:52:47;25.63;;;20.05;;
6679;SDS011;3376;42.664;23.346;2022-12-24T04:55:13;25.20;;;20.65;;
6679;SDS011;3376;42.664;23.346;2022-12-24T04:57:40;26.60;;;21.25;;
6679;SDS011;3376;42.664;23.346;2022-12-24T05:00:09;24.63;;;21.05;;
6679;SDS011;3376;42.664;23.346;2022-12-24T05:02:36;23.05;;;18.02;;
6679;SDS011;3376;42.664;23.346;2022-12-24T05:05:03;21.23;;;17.52;;
6679;SDS011;3376;42.664;23.346;2022-12-24T05:07:30;27.25;;;19.33;;
6679;SDS011;3376;42.664;23.346;2022-12-24T05:09:58;22.40;;;18.48;;
6679;SDS011;3376;42.664;23.346;2022-12-24T05:12:25;29.13;;;21.63;;
6679;SDS011;3376;42.664;23.346;2022-12-24T05:14:52;27.02;;;20.92;;
6679;SDS011;3376;42.664;23.346;2022-12-24T05:17:20;28.85;;;19.80;;
6679;SDS011;3376;42.664;23.346;2022-12-24T05:19:47;29.58;;;18.23;;
6679;SDS011;3376;42.664;23.346;2022-12-24T05:22:14;28.38;;;18.60;;
6679;SDS011;3376;42.664;23.346;2022-12-24T05:24:58;29.35;;;18.25;;
6679;SDS011;3376;42.664;23.346;2022-12-24T05:27:42;24.60;;;18.73;;
6679;SDS011;3376;42.664;23.346;2022-12-24T05:30:09;23.90;;;17.88;;
6679;SDS011;3376;42.664;23.346;2022-12-24T05:32:37;28.27;;;19.33;;
6679;SDS011;3376;42.664;23.346;2022-12-24T05:35:04;28.75;;;18.85;;
6679;SDS011;3376;42.664;23.346;2022-12-24T05:37:31;25.05;;;20.13;;
6679;SDS011;3376;42.664;23.346;2022-12-24T05:39:57;26.48;;;19.50;;
6679;SDS011;3376;42.664;23.346;2022-12-24T05:42:24;27.60;;;19.08;;
6679;SDS011;3376;42.664;23.346;2022-12-24T05:44:51;34.70;;;22.15;;
6679;SDS011;3376;42.664;23.346;2022-12-24T05:47:18;25.33;;;18.23;;
6679;SDS011;3376;42.664;23.346;2022-12-24T05:49:46;25.17;;;18.52;;
6679;SDS011;3376;42.664;23.346;2022-12-24T05:52:12;31.80;;;20.05;;
6679;SDS011;3376;42.664;23.346;2022-12-24T05:54:39;31.30;;;21.50;;
6679;SDS011;3376;42.664;23.346;2022-12-24T05:57:06;27.02;;;21.52;;
6679;SDS011;3376;42.664;23.346;2022-12-24T05:59:33;27.17;;;20.13;;
6679;SDS011;3376;42.664;23.346;2022-12-24T06:02:00;24.58;;;18.83;;
6679;SDS011;3376;42.664;23.346;2022-12-24T06:04:26;28.42;;;18.80;;
6679;SDS011;3376;42.664;23.346;2022-12-24T06:06:54;25.65;;;18.42;;
6679;SDS011;3376;42.664;23.346;2022-12-24T06:09:21;26.85;;;17.50;;
6679;SDS011;3376;42.664;23.346;2022-12-24T06:11:48;29.05;;;18.52;;
6679;SDS011;3376;42.664;23.346;2022-12-24T06:14:14;27.67;;;18.93;;
6679;SDS011;3376;42.664;23.346;2022-12-24T06:16:41;24.03;;;18.07;;
6679;SDS011;3376;42.664;23.346;2022-12-24T06:19:08;21.03;;;18.17;;
6679;SDS011;3376;42.664;23.346;2022-12-24T06:21:35;24.13;;;17.47;;
6679;SDS011;3376;42.664;23.346;2022-12-24T06:24:03;21.67;;;17.33;;
6679;SDS011;3376;42.664;23.346;2022-12-24T06:26:30;21.57;;;16.83;;
6679;SDS011;3376;42.664;23.346;2022-12-24T06:28:57;21.17;;;16.87;;
6679;SDS011;3376;42.664;23.346;2022-12-24T06:31:24;27.63;;;18.17;;
6679;SDS011;3376;42.664;23.346;2022-12-24T06:33:51;20.83;;;16.83;;
6679;SDS011;3376;42.664;23.346;2022-12-24T06:36:19;17.87;;;16.03;;
6679;SDS011;3376;42.664;23.346;2022-12-24T06:38:47;20.13;;;16.33;;
6679;SDS011;3376;42.664;23.346;2022-12-24T06:41:16;19.40;;;17.30;;
6679;SDS011;3376;42.664;23.346;2022-12-24T06:43:44;21.83;;;16.53;;
6679;SDS011;3376;42.664;23.346;2022-12-24T06:46:11;19.63;;;17.57;;
6679;SDS011;3376;42.664;23.346;2022-12-24T06:48:38;18.77;;;16.87;;
6679;SDS011;3376;42.664;23.346;2022-12-24T06:51:05;25.80;;;19.10;;
6679;SDS011;3376;42.664;23.346;2022-12-24T06:53:32;35.13;;;25.57;;
6679;SDS011;3376;42.664;23.346;2022-12-24T06:56:02;56.73;;;37.80;;
6679;SDS011;3376;42.664;23.346;2022-12-24T06:58:31;53.03;;;36.70;;
6679;SDS011;3376;42.664;23.346;2022-12-24T07:00:59;37.40;;;27.50;;
6679;SDS011;3376;42.664;23.346;2022-12-24T07:03:26;48.00;;;31.53;;
6679;SDS011;3376;42.664;23.346;2022-12-24T07:05:53;51.27;;;33.23;;
6679;SDS011;3376;42.664;23.346;2022-12-24T07:08:20;79.43;;;52.80;;
6679;SDS011;3376;42.664;23.346;2022-12-24T07:10:47;82.87;;;54.87;;
6679;SDS011;3376;42.664;23.346;2022-12-24T07:13:14;96.63;;;62.00;;
6679;SDS011;3376;42.664;23.346;2022-12-24T07:15:42;90.03;;;61.23;;
6679;SDS011;3376;42.664;23.346;2022-12-24T07:18:09;90.67;;;61.80;;
6679;SDS011;3376;42.664;23.346;2022-12-24T07:20:36;92.03;;;62.20;;
6679;SDS011;3376;42.664;23.346;2022-12-24T07:23:03;96.40;;;65.00;;
6679;SDS011;3376;42.664;23.346;2022-12-24T07:25:30;80.27;;;57.47;;
6679;SDS011;3376;42.664;23.346;2022-12-24T07:27:57;69.90;;;50.13;;
6679;SDS011;3376;42.664;23.346;2022-12-24T07:30:23;75.13;;;53.93;;
6679;SDS011;3376;42.664;23.346;2022-12-24T07:32:52;78.20;;;56.20;;
6679;SDS011;3376;42.664;23.346;2022-12-24T07:35:18;78.67;;;55.77;;
6679;SDS011;3376;42.664;23.346;2022-12-24T07:37:45;76.37;;;54.80;;
6679;SDS011;3376;42.664;23.346;2022-12-24T07:40:12;77.20;;;51.93;;
6679;SDS011;3376;42.664;23.346;2022-12-24T07:42:39;77.17;;;51.70;;
6679;SDS011;3376;42.664;23.346;2022-12-24T07:45:06;74.77;;;51.97;;
6679;SDS011;3376;42.664;23.346;2022-12-24T07:47:34;79.77;;;49.33;;
6679;SDS011;3376;42.664;23.346;2022-12-24T07:50:02;68.10;;;47.07;;
6679;SDS011;3376;42.664;23.346;2022-12-24T07:52:29;64.27;;;43.97;;
6679;SDS011;3376;42.664;23.346;2022-12-24T07:54:56;61.33;;;44.07;;
6679;SDS011;3376;42.664;23.346;2022-12-24T07:57:23;65.17;;;44.20;;
6679;SDS011;3376;42.664;23.346;2022-12-24T07:59:49;62.90;;;43.03;;
6679;SDS011;3376;42.664;23.346;2022-12-24T08:02:16;69.90;;;43.30;;
6679;SDS011;3376;42.664;23.346;2022-12-24T08:04:43;56.10;;;41.47;;
6679;SDS011;3376;42.664;23.346;2022-12-24T08:07:11;54.27;;;38.30;;
6679;SDS011;3376;42.664;23.346;2022-12-24T08:09:38;56.67;;;35.27;;
6679;SDS011;3376;42.664;23.346;2022-12-24T08:12:04;54.47;;;32.57;;
6679;SDS011;3376;42.664;23.346;2022-12-24T08:14:31;42.37;;;30.83;;
6679;SDS011;3376;42.664;23.346;2022-12-24T08:16:58;37.07;;;28.97;;
6679;SDS011;3376;42.664;23.346;2022-12-24T08:19:25;35.57;;;26.87;;
6679;SDS011;3376;42.664;23.346;2022-12-24T08:21:52;35.77;;;24.37;;
6679;SDS011;3376;42.664;23.346;2022-12-24T08:24:20;34.33;;;26.47;;
6679;SDS011;3376;42.664;23.346;2022-12-24T08:26:47;28.53;;;23.10;;
6679;SDS011;3376;42.664;23.346;2022-12-24T08:29:13;28.13;;;22.37;;
6679;SDS011;3376;42.664;23.346;2022-12-24T08:31:40;27.83;;;22.60;;
6679;SDS011;3376;42.664;23.346;2022-12-24T08:34:07;31.27;;;23.93;;
6679;SDS011;3376;42.664;23.346;2022-12-24T08:36:35;30.53;;;24.27;;
6679;SDS011;3376;42.664;23.346;2022-12-24T08:39:02;31.83;;;23.80;;
6679;SDS011;3376;42.664;23.346;2022-12-24T08:41:30;33.53;;;24.77;;
6679;SDS011;3376;42.664;23.346;2022-12-24T08:43:57;36.93;;;25.60;;
6679;SDS011;3376;42.664;23.346;2022-12-24T08:46:24;35.20;;;26.03;;
6679;SDS011;3376;42.664;23.346;2022-12-24T08:48:51;41.60;;;27.50;;
6679;SDS011;3376;42.664;23.346;2022-12-24T08:51:18;35.07;;;25.17;;
6679;SDS011;3376;42.664;23.346;2022-12-24T08:53:45;35.73;;;26.63;;
6679;SDS011;3376;42.664;23.346;2022-12-24T08:56:12;41.60;;;26.53;;
6679;SDS011;3376;42.664;23.346;2022-12-24T08:58:40;43.50;;;27.60;;
6679;SDS011;3376;42.664;23.346;2022-12-24T09:01:10;44.27;;;27.57;;
6679;SDS011;3376;42.664;23.346;2022-12-24T09:03:38;34.90;;;25.17;;
6679;SDS011;3376;42.664;23.346;2022-12-24T09:06:05;32.57;;;25.23;;
6679;SDS011;3376;42.664;23.346;2022-12-24T09:08:33;31.50;;;23.33;;
6679;SDS011;3376;42.664;23.346;2022-12-24T09:11:04;34.07;;;24.10;;
6679;SDS011;3376;42.664;23.346;2022-12-24T09:13:32;27.83;;;22.87;;
6679;SDS011;3376;42.664;23.346;2022-12-24T09:16:00;29.07;;;21.13;;
6679;SDS011;3376;42.664;23.346;2022-12-24T09:18:27;27.63;;;21.23;;
6679;SDS011;3376;42.664;23.346;2022-12-24T09:20:58;28.23;;;19.77;;
6679;SDS011;3376;42.664;23.346;2022-12-24T09:23:26;26.03;;;20.47;;
6679;SDS011;3376;42.664;23.346;2022-12-24T09:25:53;22.10;;;19.07;;
6679;SDS011;3376;42.664;23.346;2022-12-24T09:28:19;21.93;;;19.27;;
6679;SDS011;3376;42.664;23.346;2022-12-24T09:30:53;24.83;;;18.27;;
6679;SDS011;3376;42.664;23.346;2022-12-24T09:33:23;21.73;;;17.57;;
6679;SDS011;3376;42.664;23.346;2022-12-24T09:35:50;18.57;;;16.50;;
6679;SDS011;3376;42.664;23.346;2022-12-24T09:38:17;20.17;;;17.40;;
6679;SDS011;3376;42.664;23.346;2022-12-24T09:40:44;21.70;;;18.63;;
6679;SDS011;3376;42.664;23.346;2022-12-24T09:43:12;36.60;;;23.73;;
6679;SDS011;3376;42.664;23.346;2022-12-24T09:45:43;46.77;;;29.63;;
6679;SDS011;3376;42.664;23.346;2022-12-24T09:48:15;60.53;;;40.20;;
6679;SDS011;3376;42.664;23.346;2022-12-24T09:50:48;64.43;;;41.90;;
6679;SDS011;3376;42.664;23.346;2022-12-24T09:53:19;68.87;;;43.67;;
6679;SDS011;3376;42.664;23.346;2022-12-24T09:55:54;74.97;;;46.20;;
6679;SDS011;3376;42.664;23.346;2022-12-24T09:58:24;71.57;;;46.50;;
6679;SDS011;3376;42.664;23.346;2022-12-24T10:00:54;71.27;;;47.53;;
6679;SDS011;3376;42.664;23.346;2022-12-24T10:03:21;81.17;;;50.97;;
6679;SDS011;3376;42.664;23.346;2022-12-24T10:05:53;84.00;;;51.37;;
6679;SDS011;3376;42.664;23.346;2022-12-24T10:08:30;85.07;;;51.53;;
6679;SDS011;3376;42.664;23.346;2022-12-24T10:11:06;81.13;;;52.80;;
6679;SDS011;3376;42.664;23.346;2022-12-24T10:13:45;83.07;;;51.87;;
6679;SDS011;3376;42.664;23.346;2022-12-24T10:16:23;93.27;;;52.53;;
6679;SDS011;3376;42.664;23.346;2022-12-24T10:18:58;80.33;;;50.87;;
6679;SDS011;3376;42.664;23.346;2022-12-24T10:21:34;79.13;;;49.60;;
6679;SDS011;3376;42.664;23.346;2022-12-24T10:24:10;81.23;;;51.13;;
6679;SDS011;3376;42.664;23.346;2022-12-24T10:26:43;85.73;;;51.53;;
6679;SDS011;3376;42.664;23.346;2022-12-24T10:29:12;79.53;;;50.90;;
6679;SDS011;3376;42.664;23.346;2022-12-24T10:31:44;83.03;;;49.93;;
6679;SDS011;3376;42.664;23.346;2022-12-24T10:34:20;77.50;;;50.07;;
6679;SDS011;3376;42.664;23.346;2022-12-24T10:36:50;71.30;;;46.57;;
6679;SDS011;3376;42.664;23.346;2022-12-24T10:39:17;75.73;;;48.90;;
6679;SDS011;3376;42.664;23.346;2022-12-24T10:41:46;69.80;;;45.03;;
6679;SDS011;3376;42.664;23.346;2022-12-24T10:44:15;70.17;;;46.27;;
6679;SDS011;3376;42.664;23.346;2022-12-24T10:46:45;74.47;;;44.43;;
6679;SDS011;3376;42.664;23.346;2022-12-24T10:49:13;62.10;;;41.83;;
6679;SDS011;3376;42.664;23.346;2022-12-24T10:51:42;70.40;;;45.83;;
6679;SDS011;3376;42.664;23.346;2022-12-24T10:54:17;67.07;;;41.40;;
6679;SDS011;3376;42.664;23.346;2022-12-24T10:56:46;66.97;;;41.27;;
6679;SDS011;3376;42.664;23.346;2022-12-24T10:59:23;64.07;;;40.10;;
6679;SDS011;3376;42.664;23.346;2022-12-24T11:01:51;55.83;;;38.83;;
6679;SDS011;3376;42.664;23.346;2022-12-24T11:04:19;60.93;;;38.23;;
6679;SDS011;3376;42.664;23.346;2022-12-24T11:06:51;64.53;;;41.10;;
6679;SDS011;3376;42.664;23.346;2022-12-24T11:09:21;66.50;;;38.63;;
6679;SDS011;3376;42.664;23.346;2022-12-24T11:11:49;61.33;;;39.87;;
6679;SDS011;3376;42.664;23.346;2022-12-24T11:14:17;63.17;;;38.20;;
6679;SDS011;3376;42.664;23.346;2022-12-24T11:16:48;60.13;;;38.50;;
6679;SDS011;3376;42.664;23.346;2022-12-24T11:19:17;55.50;;;38.27;;
6679;SDS011;3376;42.664;23.346;2022-12-24T11:21:46;59.30;;;38.13;;
6679;SDS011;3376;42.664;23.346;2022-12-24T11:24:20;58.43;;;37.40;;
6679;SDS011;3376;42.664;23.346;2022-12-24T11:26:53;57.03;;;36.57;;
6679;SDS011;3376;42.664;23.346;2022-12-24T11:29:21;55.63;;;37.50;;
6679;SDS011;3376;42.664;23.346;2022-12-24T11:31:49;57.50;;;35.77;;
6679;SDS011;3376;42.664;23.346;2022-12-24T11:34:20;53.20;;;36.90;;
6679;SDS011;3376;42.664;23.346;2022-12-24T11:36:52;51.80;;;36.27;;
6679;SDS011;3376;42.664;23.346;2022-12-24T11:39:22;60.50;;;39.80;;
6679;SDS011;3376;42.664;23.346;2022-12-24T11:41:52;54.00;;;37.40;;
6679;SDS011;3376;42.664;23.346;2022-12-24T11:44:22;49.53;;;34.80;;
6679;SDS011;3376;42.664;23.346;2022-12-24T11:46:50;49.27;;;34.57;;
6679;SDS011;3376;42.664;23.346;2022-12-24T11:49:24;52.27;;;33.40;;
6679;SDS011;3376;42.664;23.346;2022-12-24T11:52:12;45.40;;;32.60;;
6679;SDS011;3376;42.664;23.346;2022-12-24T11:54:50;45.90;;;34.13;;
6679;SDS011;3376;42.664;23.346;2022-12-24T11:57:30;49.43;;;35.87;;
6679;SDS011;3376;42.664;23.346;2022-12-24T12:00:07;48.43;;;34.47;;
6679;SDS011;3376;42.664;23.346;2022-12-24T12:02:37;44.40;;;35.67;;
6679;SDS011;3376;42.664;23.346;2022-12-24T12:05:07;51.37;;;35.73;;
6679;SDS011;3376;42.664;23.346;2022-12-24T12:07:37;52.10;;;37.80;;
6679;SDS011;3376;42.664;23.346;2022-12-24T12:10:06;49.53;;;36.50;;
6679;SDS011;3376;42.664;23.346;2022-12-24T12:12:41;49.30;;;35.43;;
6679;SDS011;3376;42.664;23.346;2022-12-24T12:15:11;58.33;;;36.40;;
6679;SDS011;3376;42.664;23.346;2022-12-24T12:17:42;45.83;;;35.87;;
6679;SDS011;3376;42.664;23.346;2022-12-24T12:20:15;44.73;;;34.83;;
6679;SDS011;3376;42.664;23.346;2022-12-24T12:22:49;43.30;;;32.33;;
6679;SDS011;3376;42.664;23.346;2022-12-24T12:25:24;49.63;;;32.83;;
6679;SDS011;3376;42.664;23.346;2022-12-24T12:27:57;39.57;;;32.17;;
6679;SDS011;3376;42.664;23.346;2022-12-24T12:30:27;40.83;;;33.90;;
6679;SDS011;3376;42.664;23.346;2022-12-24T12:32:57;44.30;;;34.63;;
6679;SDS011;3376;42.664;23.346;2022-12-24T12:35:28;40.13;;;34.00;;
6679;SDS011;3376;42.664;23.346;2022-12-24T12:37:57;39.57;;;32.53;;
6679;SDS011;3376;42.664;23.346;2022-12-24T12:40:31;39.07;;;32.70;;
6679;SDS011;3376;42.664;23.346;2022-12-24T12:43:20;41.50;;;31.53;;
6679;SDS011;3376;42.664;23.346;2022-12-24T12:45:59;35.60;;;29.33;;
6679;SDS011;3376;42.664;23.346;2022-12-24T12:48:44;36.43;;;29.10;;
6679;SDS011;3376;42.664;23.346;2022-12-24T12:51:21;40.07;;;30.30;;
6679;SDS011;3376;42.664;23.346;2022-12-24T12:53:59;35.37;;;28.27;;
6679;SDS011;3376;42.664;23.346;2022-12-24T12:56:41;30.67;;;26.90;;
6679;SDS011;3376;42.664;23.346;2022-12-24T12:59:14;37.40;;;28.87;;
6679;SDS011;3376;42.664;23.346;2022-12-24T13:01:48;36.90;;;28.77;;
6679;SDS011;3376;42.664;23.346;2022-12-24T13:07:28;42.20;;;31.90;;
6679;SDS011;3376;42.664;23.346;2022-12-24T13:13:21;52.70;;;35.87;;
6679;SDS011;3376;42.664;23.346;2022-12-24T13:16:10;66.70;;;43.20;;
6679;SDS011;3376;42.664;23.346;2022-12-24T13:18:57;69.93;;;44.83;;
6679;SDS011;3376;42.664;23.346;2022-12-24T13:21:32;64.93;;;44.93;;
6679;SDS011;3376;42.664;23.346;2022-12-24T13:24:06;72.83;;;48.33;;
6679;SDS011;3376;42.664;23.346;2022-12-24T13:26:40;75.13;;;48.60;;
6679;SDS011;3376;42.664;23.346;2022-12-24T13:35:28;90.07;;;51.97;;
6679;SDS011;3376;42.664;23.346;2022-12-24T13:47:01;78.33;;;49.50;;
6679;SDS011;3376;42.664;23.346;2022-12-24T13:49:47;79.23;;;49.90;;
6679;SDS011;3376;42.664;23.346;2022-12-24T13:52:17;75.63;;;49.73;;
6679;SDS011;3376;42.664;23.346;2022-12-24T13:57:43;83.87;;;50.83;;
6679;SDS011;3376;42.664;23.346;2022-12-24T14:00:25;73.13;;;50.63;;
6679;SDS011;3376;42.664;23.346;2022-12-24T14:03:04;71.13;;;46.47;;
6679;SDS011;3376;42.664;23.346;2022-12-24T14:05:44;76.70;;;45.93;;
6679;SDS011;3376;42.664;23.346;2022-12-24T14:08:14;65.70;;;43.93;;
6679;SDS011;3376;42.664;23.346;2022-12-24T14:10:55;64.53;;;42.27;;
6679;SDS011;3376;42.664;23.346;2022-12-24T14:16:48;56.73;;;37.80;;
6679;SDS011;3376;42.664;23.346;2022-12-24T14:19:19;62.90;;;39.13;;
6679;SDS011;3376;42.664;23.346;2022-12-24T14:21:55;79.83;;;47.63;;
6679;SDS011;3376;42.664;23.346;2022-12-24T14:24:30;77.73;;;46.50;;
6679;SDS011;3376;42.664;23.346;2022-12-24T14:27:07;77.70;;;45.47;;
6679;SDS011;3376;42.664;23.346;2022-12-24T14:29:43;73.57;;;47.47;;
6679;SDS011;3376;42.664;23.346;2022-12-24T14:32:14;87.50;;;50.63;;
6679;SDS011;3376;42.664;23.346;2022-12-24T14:34:43;87.83;;;51.03;;
6679;SDS011;3376;42.664;23.346;2022-12-24T14:37:11;90.17;;;53.47;;
6679;SDS011;3376;42.664;23.346;2022-12-24T14:39:40;95.03;;;52.77;;
6679;SDS011;3376;42.664;23.346;2022-12-24T14:42:15;93.37;;;52.80;;
6679;SDS011;3376;42.664;23.346;2022-12-24T14:44:52;88.83;;;55.73;;
6679;SDS011;3376;42.664;23.346;2022-12-24T14:47:29;90.17;;;53.37;;
6679;SDS011;3376;42.664;23.346;2022-12-24T14:53:11;84.50;;;53.83;;
6679;SDS011;3376;42.664;23.346;2022-12-24T14:55:47;95.50;;;53.10;;
6679;SDS011;3376;42.664;23.346;2022-12-24T14:58:20;77.23;;;48.63;;
6679;SDS011;3376;42.664;23.346;2022-12-24T15:00:50;54.10;;;37.10;;
6679;SDS011;3376;42.664;23.346;2022-12-24T15:03:18;56.70;;;36.00;;
6679;SDS011;3376;42.664;23.346;2022-12-24T15:05:49;47.13;;;34.23;;
6679;SDS011;3376;42.664;23.346;2022-12-24T15:08:20;48.17;;;32.20;;
6679;SDS011;3376;42.664;23.346;2022-12-24T15:10:52;45.47;;;30.10;;
6679;SDS011;3376;42.664;23.346;2022-12-24T15:13:21;58.10;;;34.33;;
6679;SDS011;3376;42.664;23.346;2022-12-24T15:15:54;37.33;;;26.87;;
6679;SDS011;3376;42.664;23.346;2022-12-24T15:18:23;37.23;;;25.37;;
6679;SDS011;3376;42.664;23.346;2022-12-24T15:20:54;33.73;;;23.60;;